Terminal Aerodrome Forecast
Issued by NWS

Home | Current Version | Previous Version | Text Only | Print | Product List | Glossary On
Versions: 1 2 3 4 5 6 7 8 9 10 11 12
000
FTAK31 PANC 231131
TAFAHO
TAF
PAHO 231131Z 2312/2412 VRB03KT P6SM BKN035
     FM232200 24010KT P6SM SCT060
     FM240600 VRB03KT P6SM SKC=

USA.gov is the U.S. government's official web portal to all federal, state and local government web resources and services.